sensor_id;sensor_type;location;lat;lon;timestamp;P1;durP1;ratioP1;P2;durP2;ratioP2
30010;SDS011;16851;53.564;8.112;2023-03-01T00:00:06;39.20;;;22.80;;
30010;SDS011;16851;53.564;8.112;2023-03-01T00:05:14;39.20;;;22.60;;
30010;SDS011;16851;53.564;8.112;2023-03-01T00:10:16;38.70;;;23.47;;
30010;SDS011;16851;53.564;8.112;2023-03-01T00:15:20;43.53;;;24.00;;
30010;SDS011;16851;53.564;8.112;2023-03-01T00:20:22;37.77;;;22.27;;
30010;SDS011;16851;53.564;8.112;2023-03-01T00:25:26;38.30;;;24.03;;
30010;SDS011;16851;53.564;8.112;2023-03-01T00:30:28;37.60;;;23.73;;
30010;SDS011;16851;53.564;8.112;2023-03-01T00:35:29;38.40;;;23.40;;
30010;SDS011;16851;53.564;8.112;2023-03-01T00:40:34;37.03;;;23.07;;
30010;SDS011;16851;53.564;8.112;2023-03-01T00:45:36;36.53;;;22.53;;
30010;SDS011;16851;53.564;8.112;2023-03-01T00:50:40;35.93;;;21.83;;
30010;SDS011;16851;53.564;8.112;2023-03-01T00:55:42;36.77;;;21.70;;
30010;SDS011;16851;53.564;8.112;2023-03-01T01:00:44;32.83;;;20.73;;
30010;SDS011;16851;53.564;8.112;2023-03-01T01:05:45;34.30;;;21.80;;
30010;SDS011;16851;53.564;8.112;2023-03-01T01:10:47;32.20;;;19.93;;
30010;SDS011;16851;53.564;8.112;2023-03-01T01:15:53;35.37;;;22.37;;
30010;SDS011;16851;53.564;8.112;2023-03-01T01:20:56;33.63;;;20.37;;
30010;SDS011;16851;53.564;8.112;2023-03-01T01:26:13;31.17;;;19.97;;
30010;SDS011;16851;53.564;8.112;2023-03-01T01:31:19;34.50;;;20.70;;
30010;SDS011;16851;53.564;8.112;2023-03-01T01:36:23;35.80;;;20.97;;
30010;SDS011;16851;53.564;8.112;2023-03-01T01:41:30;35.23;;;20.50;;
30010;SDS011;16851;53.564;8.112;2023-03-01T01:46:32;30.17;;;19.50;;
30010;SDS011;16851;53.564;8.112;2023-03-01T01:51:37;32.60;;;19.30;;
30010;SDS011;16851;53.564;8.112;2023-03-01T01:56:42;38.47;;;22.30;;
30010;SDS011;16851;53.564;8.112;2023-03-01T02:01:48;33.17;;;21.30;;
30010;SDS011;16851;53.564;8.112;2023-03-01T02:06:55;31.93;;;20.63;;
30010;SDS011;16851;53.564;8.112;2023-03-01T02:12:01;34.20;;;20.13;;
30010;SDS011;16851;53.564;8.112;2023-03-01T02:17:05;32.03;;;19.77;;
30010;SDS011;16851;53.564;8.112;2023-03-01T02:22:22;46.07;;;27.57;;
30010;SDS011;16851;53.564;8.112;2023-03-01T02:27:27;45.03;;;25.30;;
30010;SDS011;16851;53.564;8.112;2023-03-01T02:32:35;38.03;;;23.80;;
30010;SDS011;16851;53.564;8.112;2023-03-01T02:37:39;42.50;;;24.57;;
30010;SDS011;16851;53.564;8.112;2023-03-01T02:42:51;41.20;;;23.17;;
30010;SDS011;16851;53.564;8.112;2023-03-01T02:47:56;36.03;;;22.47;;
30010;SDS011;16851;53.564;8.112;2023-03-01T02:53:16;42.50;;;25.07;;
30010;SDS011;16851;53.564;8.112;2023-03-01T02:58:24;34.97;;;23.03;;
30010;SDS011;16851;53.564;8.112;2023-03-01T03:03:29;37.60;;;25.67;;
30010;SDS011;16851;53.564;8.112;2023-03-01T03:08:31;34.43;;;23.57;;
30010;SDS011;16851;53.564;8.112;2023-03-01T03:13:37;48.87;;;27.90;;
30010;SDS011;16851;53.564;8.112;2023-03-01T03:19:00;371.30;;;51.80;;
30010;SDS011;16851;53.564;8.112;2023-03-01T03:24:06;391.90;;;55.90;;
30010;SDS011;16851;53.564;8.112;2023-03-01T03:29:11;278.63;;;52.93;;
30010;SDS011;16851;53.564;8.112;2023-03-01T03:34:18;238.30;;;51.63;;
30010;SDS011;16851;53.564;8.112;2023-03-01T03:39:22;101.87;;;43.07;;
30010;SDS011;16851;53.564;8.112;2023-03-01T03:44:27;148.63;;;46.60;;
30010;SDS011;16851;53.564;8.112;2023-03-01T03:49:31;193.13;;;48.10;;
30010;SDS011;16851;53.564;8.112;2023-03-01T03:54:33;342.03;;;53.37;;
30010;SDS011;16851;53.564;8.112;2023-03-01T03:59:37;176.90;;;37.73;;
30010;SDS011;16851;53.564;8.112;2023-03-01T04:04:41;223.20;;;41.80;;
30010;SDS011;16851;53.564;8.112;2023-03-01T04:09:45;285.00;;;40.63;;
30010;SDS011;16851;53.564;8.112;2023-03-01T04:14:47;297.70;;;42.97;;
30010;SDS011;16851;53.564;8.112;2023-03-01T04:19:51;231.57;;;34.87;;
30010;SDS011;16851;53.564;8.112;2023-03-01T04:24:53;209.37;;;37.23;;
30010;SDS011;16851;53.564;8.112;2023-03-01T04:29:55;189.70;;;33.50;;
30010;SDS011;16851;53.564;8.112;2023-03-01T04:35:01;285.37;;;35.87;;
30010;SDS011;16851;53.564;8.112;2023-03-01T04:40:05;417.87;;;46.77;;
30010;SDS011;16851;53.564;8.112;2023-03-01T04:45:19;298.43;;;43.23;;
30010;SDS011;16851;53.564;8.112;2023-03-01T04:50:21;171.40;;;33.10;;
30010;SDS011;16851;53.564;8.112;2023-03-01T04:55:27;127.53;;;27.03;;
30010;SDS011;16851;53.564;8.112;2023-03-01T05:00:30;171.90;;;29.40;;
30010;SDS011;16851;53.564;8.112;2023-03-01T05:05:32;263.80;;;38.53;;
30010;SDS011;16851;53.564;8.112;2023-03-01T05:10:38;208.10;;;32.00;;
30010;SDS011;16851;53.564;8.112;2023-03-01T05:15:40;198.50;;;30.67;;
30010;SDS011;16851;53.564;8.112;2023-03-01T05:20:44;213.10;;;34.33;;
30010;SDS011;16851;53.564;8.112;2023-03-01T05:25:46;386.37;;;39.43;;
30010;SDS011;16851;53.564;8.112;2023-03-01T05:30:48;130.33;;;26.10;;
30010;SDS011;16851;53.564;8.112;2023-03-01T05:35:53;261.27;;;35.63;;
30010;SDS011;16851;53.564;8.112;2023-03-01T05:40:55;202.87;;;30.93;;
30010;SDS011;16851;53.564;8.112;2023-03-01T05:45:59;236.00;;;32.00;;
30010;SDS011;16851;53.564;8.112;2023-03-01T05:51:01;240.07;;;30.97;;
30010;SDS011;16851;53.564;8.112;2023-03-01T05:56:05;336.93;;;34.47;;
30010;SDS011;16851;53.564;8.112;2023-03-01T06:01:10;267.80;;;29.97;;
30010;SDS011;16851;53.564;8.112;2023-03-01T06:06:13;176.60;;;24.70;;
30010;SDS011;16851;53.564;8.112;2023-03-01T06:11:15;184.50;;;26.67;;
30010;SDS011;16851;53.564;8.112;2023-03-01T06:16:21;155.83;;;24.13;;
30010;SDS011;16851;53.564;8.112;2023-03-01T06:21:23;175.20;;;24.33;;
30010;SDS011;16851;53.564;8.112;2023-03-01T06:26:30;122.13;;;22.10;;
30010;SDS011;16851;53.564;8.112;2023-03-01T06:31:34;85.13;;;22.93;;
30010;SDS011;16851;53.564;8.112;2023-03-01T06:36:39;62.17;;;22.30;;
30010;SDS011;16851;53.564;8.112;2023-03-01T06:41:43;62.80;;;21.23;;
30010;SDS011;16851;53.564;8.112;2023-03-01T06:46:45;74.33;;;20.63;;
30010;SDS011;16851;53.564;8.112;2023-03-01T06:51:52;130.73;;;26.67;;
30010;SDS011;16851;53.564;8.112;2023-03-01T06:56:59;133.33;;;24.80;;
30010;SDS011;16851;53.564;8.112;2023-03-01T07:02:01;130.73;;;26.20;;
30010;SDS011;16851;53.564;8.112;2023-03-01T07:07:03;117.77;;;28.30;;
30010;SDS011;16851;53.564;8.112;2023-03-01T07:12:05;139.97;;;27.27;;
30010;SDS011;16851;53.564;8.112;2023-03-01T07:17:09;157.50;;;29.43;;
30010;SDS011;16851;53.564;8.112;2023-03-01T07:22:13;158.27;;;30.23;;
30010;SDS011;16851;53.564;8.112;2023-03-01T07:27:17;140.03;;;31.37;;
30010;SDS011;16851;53.564;8.112;2023-03-01T07:32:19;196.53;;;30.60;;
30010;SDS011;16851;53.564;8.112;2023-03-01T07:37:21;223.13;;;32.40;;
30010;SDS011;16851;53.564;8.112;2023-03-01T07:42:25;196.77;;;31.60;;
30010;SDS011;16851;53.564;8.112;2023-03-01T07:47:29;178.77;;;29.40;;
30010;SDS011;16851;53.564;8.112;2023-03-01T07:52:35;112.63;;;24.70;;
30010;SDS011;16851;53.564;8.112;2023-03-01T07:57:39;139.47;;;26.00;;
30010;SDS011;16851;53.564;8.112;2023-03-01T08:02:43;120.90;;;23.73;;
30010;SDS011;16851;53.564;8.112;2023-03-01T08:07:50;79.77;;;19.83;;
30010;SDS011;16851;53.564;8.112;2023-03-01T08:12:52;162.77;;;24.87;;
30010;SDS011;16851;53.564;8.112;2023-03-01T08:17:56;177.97;;;26.73;;
30010;SDS011;16851;53.564;8.112;2023-03-01T08:23:00;95.50;;;22.43;;
30010;SDS011;16851;53.564;8.112;2023-03-01T08:28:06;171.87;;;28.40;;
30010;SDS011;16851;53.564;8.112;2023-03-01T08:33:11;68.47;;;24.53;;
30010;SDS011;16851;53.564;8.112;2023-03-01T08:38:12;102.37;;;26.83;;
30010;SDS011;16851;53.564;8.112;2023-03-01T08:43:14;56.20;;;21.00;;
30010;SDS011;16851;53.564;8.112;2023-03-01T08:48:21;62.13;;;22.53;;
30010;SDS011;16851;53.564;8.112;2023-03-01T08:53:26;69.73;;;21.57;;
30010;SDS011;16851;53.564;8.112;2023-03-01T08:58:30;77.43;;;25.83;;
30010;SDS011;16851;53.564;8.112;2023-03-01T09:03:35;85.63;;;27.87;;
30010;SDS011;16851;53.564;8.112;2023-03-01T09:08:40;61.23;;;26.00;;
30010;SDS011;16851;53.564;8.112;2023-03-01T09:13:43;69.67;;;26.73;;
30010;SDS011;16851;53.564;8.112;2023-03-01T09:18:48;68.90;;;27.40;;
30010;SDS011;16851;53.564;8.112;2023-03-01T09:23:51;67.63;;;27.90;;
30010;SDS011;16851;53.564;8.112;2023-03-01T09:28:54;54.73;;;25.57;;
30010;SDS011;16851;53.564;8.112;2023-03-01T09:33:56;60.47;;;27.47;;
30010;SDS011;16851;53.564;8.112;2023-03-01T09:38:58;44.73;;;22.17;;
30010;SDS011;16851;53.564;8.112;2023-03-01T09:44:12;42.00;;;23.43;;
30010;SDS011;16851;53.564;8.112;2023-03-01T09:49:22;29.57;;;16.90;;
30010;SDS011;16851;53.564;8.112;2023-03-01T09:54:26;24.73;;;16.70;;
30010;SDS011;16851;53.564;8.112;2023-03-01T09:59:41;26.57;;;14.50;;
30010;SDS011;16851;53.564;8.112;2023-03-01T10:10:25;15.83;;;9.57;;
30010;SDS011;16851;53.564;8.112;2023-03-01T10:15:39;11.57;;;6.33;;
30010;SDS011;16851;53.564;8.112;2023-03-01T10:31:25;12.00;;;8.40;;
30010;SDS011;16851;53.564;8.112;2023-03-01T10:36:31;14.83;;;9.57;;
30010;SDS011;16851;53.564;8.112;2023-03-01T10:41:37;16.83;;;10.63;;
30010;SDS011;16851;53.564;8.112;2023-03-01T10:46:59;14.40;;;10.37;;
30010;SDS011;16851;53.564;8.112;2023-03-01T10:52:17;15.57;;;10.03;;
30010;SDS011;16851;53.564;8.112;2023-03-01T10:57:24;12.93;;;8.90;;
30010;SDS011;16851;53.564;8.112;2023-03-01T11:02:33;16.70;;;9.80;;
30010;SDS011;16851;53.564;8.112;2023-03-01T11:13:13;13.68;;;10.35;;
30010;SDS011;16851;53.564;8.112;2023-03-01T11:18:22;18.77;;;9.50;;
30010;SDS011;16851;53.564;8.112;2023-03-01T11:23:46;14.53;;;8.47;;
30010;SDS011;16851;53.564;8.112;2023-03-01T11:28:51;14.73;;;8.60;;
30010;SDS011;16851;53.564;8.112;2023-03-01T11:33:57;14.63;;;8.93;;
30010;SDS011;16851;53.564;8.112;2023-03-01T11:39:12;12.47;;;7.73;;
30010;SDS011;16851;53.564;8.112;2023-03-01T11:44:28;14.50;;;8.70;;
30010;SDS011;16851;53.564;8.112;2023-03-01T12:16:23;13.87;;;9.93;;
30010;SDS011;16851;53.564;8.112;2023-03-01T12:22:01;11.00;;;8.23;;
30010;SDS011;16851;53.564;8.112;2023-03-01T12:53:44;12.27;;;10.00;;
30010;SDS011;16851;53.564;8.112;2023-03-01T13:09:38;14.15;;;11.15;;
30010;SDS011;16851;53.564;8.112;2023-03-01T13:14:45;14.15;;;11.70;;
30010;SDS011;16851;53.564;8.112;2023-03-01T13:19:57;13.98;;;11.55;;
30010;SDS011;16851;53.564;8.112;2023-03-01T13:25:23;13.45;;;10.65;;
30010;SDS011;16851;53.564;8.112;2023-03-01T13:35:44;13.05;;;10.48;;
30010;SDS011;16851;53.564;8.112;2023-03-01T13:45:57;13.05;;;10.23;;
30010;SDS011;16851;53.564;8.112;2023-03-01T13:51:01;12.73;;;9.60;;
30010;SDS011;16851;53.564;8.112;2023-03-01T13:56:09;9.75;;;8.40;;
30010;SDS011;16851;53.564;8.112;2023-03-01T14:01:53;10.82;;;8.82;;
30010;SDS011;16851;53.564;8.112;2023-03-01T14:06:44;10.95;;;8.35;;
30010;SDS011;16851;53.564;8.112;2023-03-01T14:11:58;12.52;;;9.35;;
30010;SDS011;16851;53.564;8.112;2023-03-01T14:22:31;11.43;;;8.18;;
30010;SDS011;16851;53.564;8.112;2023-03-01T14:27:36;13.35;;;8.77;;
30010;SDS011;16851;53.564;8.112;2023-03-01T14:32:48;12.82;;;9.13;;
30010;SDS011;16851;53.564;8.112;2023-03-01T14:37:58;11.63;;;9.50;;
30010;SDS011;16851;53.564;8.112;2023-03-01T14:43:09;11.05;;;9.23;;
30010;SDS011;16851;53.564;8.112;2023-03-01T14:48:13;16.13;;;10.70;;
30010;SDS011;16851;53.564;8.112;2023-03-01T14:53:18;14.05;;;9.80;;
30010;SDS011;16851;53.564;8.112;2023-03-01T14:58:24;15.50;;;11.45;;
30010;SDS011;16851;53.564;8.112;2023-03-01T15:08:41;15.90;;;11.00;;
30010;SDS011;16851;53.564;8.112;2023-03-01T15:13:47;15.70;;;12.50;;
30010;SDS011;16851;53.564;8.112;2023-03-01T15:18:54;12.63;;;10.43;;
30010;SDS011;16851;53.564;8.112;2023-03-01T15:24:00;13.83;;;11.23;;
30010;SDS011;16851;53.564;8.112;2023-03-01T15:29:20;11.75;;;9.93;;
30010;SDS011;16851;53.564;8.112;2023-03-01T15:39:42;14.43;;;11.10;;
30010;SDS011;16851;53.564;8.112;2023-03-01T15:44:46;15.13;;;10.63;;
30010;SDS011;16851;53.564;8.112;2023-03-01T15:49:50;14.40;;;12.40;;
30010;SDS011;16851;53.564;8.112;2023-03-01T15:54:59;15.97;;;12.97;;
30010;SDS011;16851;53.564;8.112;2023-03-01T16:00:08;16.27;;;11.63;;
30010;SDS011;16851;53.564;8.112;2023-03-01T16:05:15;14.30;;;10.83;;
30010;SDS011;16851;53.564;8.112;2023-03-01T16:10:24;14.20;;;11.00;;
30010;SDS011;16851;53.564;8.112;2023-03-01T16:15:28;12.63;;;9.97;;
30010;SDS011;16851;53.564;8.112;2023-03-01T16:20:35;15.73;;;9.83;;
30010;SDS011;16851;53.564;8.112;2023-03-01T16:25:39;14.70;;;10.13;;
30010;SDS011;16851;53.564;8.112;2023-03-01T16:30:45;15.60;;;11.10;;
30010;SDS011;16851;53.564;8.112;2023-03-01T16:35:49;18.10;;;11.03;;
30010;SDS011;16851;53.564;8.112;2023-03-01T16:40:56;17.57;;;11.80;;
30010;SDS011;16851;53.564;8.112;2023-03-01T16:46:03;18.93;;;12.60;;
30010;SDS011;16851;53.564;8.112;2023-03-01T16:51:11;21.57;;;12.77;;
30010;SDS011;16851;53.564;8.112;2023-03-01T16:56:14;22.63;;;13.83;;
30010;SDS011;16851;53.564;8.112;2023-03-01T17:01:17;27.57;;;15.20;;
30010;SDS011;16851;53.564;8.112;2023-03-01T17:06:20;19.57;;;13.23;;
30010;SDS011;16851;53.564;8.112;2023-03-01T17:11:26;22.60;;;15.90;;
30010;SDS011;16851;53.564;8.112;2023-03-01T17:16:27;20.50;;;13.10;;
30010;SDS011;16851;53.564;8.112;2023-03-01T17:21:32;21.90;;;12.67;;
30010;SDS011;16851;53.564;8.112;2023-03-01T17:26:34;20.80;;;14.37;;
30010;SDS011;16851;53.564;8.112;2023-03-01T17:31:36;19.77;;;13.37;;
30010;SDS011;16851;53.564;8.112;2023-03-01T17:36:40;20.50;;;13.23;;
30010;SDS011;16851;53.564;8.112;2023-03-01T17:41:44;20.13;;;12.13;;
30010;SDS011;16851;53.564;8.112;2023-03-01T17:46:48;15.50;;;10.40;;
30010;SDS011;16851;53.564;8.112;2023-03-01T17:51:50;16.27;;;10.17;;
30010;SDS011;16851;53.564;8.112;2023-03-01T17:56:54;16.73;;;10.47;;
30010;SDS011;16851;53.564;8.112;2023-03-01T18:02:01;13.47;;;9.57;;
30010;SDS011;16851;53.564;8.112;2023-03-01T18:07:06;17.00;;;11.20;;
30010;SDS011;16851;53.564;8.112;2023-03-01T18:12:10;13.23;;;8.97;;
30010;SDS011;16851;53.564;8.112;2023-03-01T18:17:14;10.67;;;9.00;;
30010;SDS011;16851;53.564;8.112;2023-03-01T18:22:16;12.00;;;9.50;;
30010;SDS011;16851;53.564;8.112;2023-03-01T18:27:20;16.43;;;13.53;;
30010;SDS011;16851;53.564;8.112;2023-03-01T18:32:24;19.80;;;12.67;;
30010;SDS011;16851;53.564;8.112;2023-03-01T18:37:29;11.70;;;9.63;;
30010;SDS011;16851;53.564;8.112;2023-03-01T18:42:32;11.60;;;7.80;;
30010;SDS011;16851;53.564;8.112;2023-03-01T18:47:38;7.63;;;6.27;;
30010;SDS011;16851;53.564;8.112;2023-03-01T18:52:45;9.80;;;7.30;;
30010;SDS011;16851;53.564;8.112;2023-03-01T18:57:47;9.83;;;8.40;;
30010;SDS011;16851;53.564;8.112;2023-03-01T19:02:51;10.97;;;9.13;;
30010;SDS011;16851;53.564;8.112;2023-03-01T19:07:53;13.70;;;10.17;;
30010;SDS011;16851;53.564;8.112;2023-03-01T19:12:55;13.03;;;10.30;;
30010;SDS011;16851;53.564;8.112;2023-03-01T19:18:02;9.93;;;8.80;;
30010;SDS011;16851;53.564;8.112;2023-03-01T19:23:06;10.73;;;7.33;;
30010;SDS011;16851;53.564;8.112;2023-03-01T19:28:08;9.97;;;7.73;;
30010;SDS011;16851;53.564;8.112;2023-03-01T19:33:12;12.70;;;7.80;;
30010;SDS011;16851;53.564;8.112;2023-03-01T19:38:14;13.00;;;9.00;;
30010;SDS011;16851;53.564;8.112;2023-03-01T19:43:19;11.30;;;8.70;;
30010;SDS011;16851;53.564;8.112;2023-03-01T19:48:21;13.23;;;9.07;;
30010;SDS011;16851;53.564;8.112;2023-03-01T19:53:23;17.17;;;12.37;;
30010;SDS011;16851;53.564;8.112;2023-03-01T19:58:26;15.00;;;12.63;;
30010;SDS011;16851;53.564;8.112;2023-03-01T20:03:33;21.40;;;15.93;;
30010;SDS011;16851;53.564;8.112;2023-03-01T20:08:38;18.03;;;14.10;;
30010;SDS011;16851;53.564;8.112;2023-03-01T20:13:40;21.07;;;15.40;;
30010;SDS011;16851;53.564;8.112;2023-03-01T20:18:42;26.00;;;17.83;;
30010;SDS011;16851;53.564;8.112;2023-03-01T20:23:46;22.33;;;15.93;;
30010;SDS011;16851;53.564;8.112;2023-03-01T20:28:50;23.07;;;15.47;;
30010;SDS011;16851;53.564;8.112;2023-03-01T20:33:55;24.40;;;17.73;;
30010;SDS011;16851;53.564;8.112;2023-03-01T20:38:58;28.10;;;20.87;;
30010;SDS011;16851;53.564;8.112;2023-03-01T20:43:59;31.50;;;19.50;;
30010;SDS011;16851;53.564;8.112;2023-03-01T20:49:01;30.63;;;21.57;;
30010;SDS011;16851;53.564;8.112;2023-03-01T20:54:08;34.07;;;21.73;;
30010;SDS011;16851;53.564;8.112;2023-03-01T20:59:11;30.77;;;21.50;;
30010;SDS011;16851;53.564;8.112;2023-03-01T21:04:16;33.60;;;21.83;;
30010;SDS011;16851;53.564;8.112;2023-03-01T21:09:23;34.57;;;23.90;;
30010;SDS011;16851;53.564;8.112;2023-03-01T21:14:27;57.43;;;32.83;;
30010;SDS011;16851;53.564;8.112;2023-03-01T21:19:29;55.67;;;31.93;;
30010;SDS011;16851;53.564;8.112;2023-03-01T21:24:30;61.37;;;34.17;;
30010;SDS011;16851;53.564;8.112;2023-03-01T21:29:33;81.87;;;45.97;;
30010;SDS011;16851;53.564;8.112;2023-03-01T21:34:43;96.80;;;49.90;;
30010;SDS011;16851;53.564;8.112;2023-03-01T21:39:48;104.97;;;53.63;;
30010;SDS011;16851;53.564;8.112;2023-03-01T21:44:52;109.33;;;57.30;;
30010;SDS011;16851;53.564;8.112;2023-03-01T21:49:56;112.23;;;54.20;;
30010;SDS011;16851;53.564;8.112;2023-03-01T21:55:00;111.43;;;53.47;;
30010;SDS011;16851;53.564;8.112;2023-03-01T22:00:05;124.47;;;55.47;;
30010;SDS011;16851;53.564;8.112;2023-03-01T22:05:12;134.80;;;57.60;;
30010;SDS011;16851;53.564;8.112;2023-03-01T22:10:19;117.30;;;52.37;;
30010;SDS011;16851;53.564;8.112;2023-03-01T22:15:27;108.53;;;49.27;;
30010;SDS011;16851;53.564;8.112;2023-03-01T22:20:31;84.40;;;41.40;;
30010;SDS011;16851;53.564;8.112;2023-03-01T22:25:39;74.77;;;38.53;;
30010;SDS011;16851;53.564;8.112;2023-03-01T22:30:41;65.40;;;33.63;;
30010;SDS011;16851;53.564;8.112;2023-03-01T22:35:44;58.17;;;31.73;;
30010;SDS011;16851;53.564;8.112;2023-03-01T22:40:58;63.13;;;32.47;;
30010;SDS011;16851;53.564;8.112;2023-03-01T22:46:13;50.63;;;27.97;;
30010;SDS011;16851;53.564;8.112;2023-03-01T22:51:20;49.20;;;29.27;;
30010;SDS011;16851;53.564;8.112;2023-03-01T22:56:33;50.33;;;30.77;;
30010;SDS011;16851;53.564;8.112;2023-03-01T23:01:37;45.03;;;28.70;;
30010;SDS011;16851;53.564;8.112;2023-03-01T23:06:42;44.03;;;28.50;;
30010;SDS011;16851;53.564;8.112;2023-03-01T23:11:57;46.03;;;30.07;;
30010;SDS011;16851;53.564;8.112;2023-03-01T23:17:04;41.23;;;28.70;;
30010;SDS011;16851;53.564;8.112;2023-03-01T23:22:10;44.97;;;29.13;;
30010;SDS011;16851;53.564;8.112;2023-03-01T23:27:15;41.70;;;28.73;;
30010;SDS011;16851;53.564;8.112;2023-03-01T23:32:22;35.83;;;24.40;;
30010;SDS011;16851;53.564;8.112;2023-03-01T23:37:29;38.43;;;24.87;;
30010;SDS011;16851;53.564;8.112;2023-03-01T23:42:34;44.87;;;27.57;;
30010;SDS011;16851;53.564;8.112;2023-03-01T23:47:35;46.40;;;30.87;;
30010;SDS011;16851;53.564;8.112;2023-03-01T23:52:41;51.13;;;32.37;;
30010;SDS011;16851;53.564;8.112;2023-03-01T23:57:45;57.93;;;35.77;;
